Pagrindinis puslapis
METAR-TAF:

METAR-TAF

Oro uostai :

Ipjalesas, Kolumbija

platuma: 00-49N, ilguma: 077-38W, Aukštis: 2961 m

Dabartinis oras

Ataskaita buvo paskelbta 31 minutes, ne 16:00 UTC
Vėjas 11 kt iš Rytų/Pietryčių
Temperatūra 14°C
Drėgmė 67%
Slėgis 1033 hPa
Matomumas 10 km arba daugiau
Su prošvaistėmis ne aukštis 1800 ft

METAR: SKIP 221600Z 12011KT 9999 BKN018 14/08 A3051

Laikas: 11:31 (16:31 UTC)


TAF: trūkstamas

Orai ataskaitas ir orų prognozės (METAR, TAF).

turimą stotys yra geltonos ir raudonos taškus žemėlapyje.

Perkelti pele per norėdami pamatyti stoties vardą.

Tada spustelėkite, norėdami matyti oro stebėjimo ir prognozės.

Norėdami pakeisti žemėlapį: spustelėkite ant žalios mygtukų su juodo kryžiaus žemyn,; žalią mygtuką su brūkšneliu, jei norite nutolinti; arba žalių rodyklių gretimoms žemėlapius.


METAR-TAF: